createdAt,value
2019-04-07T00:00:08.283Z,29.43
2019-04-07T00:02:34.950Z,31.17
2019-04-07T00:05:11.262Z,30.07
2019-04-07T00:07:29.722Z,28.20
2019-04-07T00:09:56.851Z,29.13
2019-04-07T00:12:23.016Z,29.37
2019-04-07T00:14:49.242Z,31.77
2019-04-07T00:17:15.366Z,28.57
2019-04-07T00:19:41.355Z,31.03
2019-04-07T00:22:07.944Z,33.70
2019-04-07T00:24:34.275Z,35.23
2019-04-07T00:27:01.358Z,34.40
2019-04-07T00:29:27.938Z,33.90
2019-04-07T00:31:54.882Z,34.10
2019-04-07T00:34:22.116Z,35.03
2019-04-07T00:36:48.221Z,37.37
2019-04-07T00:39:14.800Z,31.67
2019-04-07T00:41:41.021Z,32.97
2019-04-07T00:44:07.455Z,33.77
2019-04-07T00:46:34.446Z,34.27
2019-04-07T00:49:00.676Z,32.73
2019-04-07T00:51:26.773Z,34.73
2019-04-07T00:53:53.093Z,32.13
2019-04-07T00:56:19.284Z,36.33
2019-04-07T00:58:45.685Z,36.40
2019-04-07T01:01:11.764Z,38.10
2019-04-07T01:03:38.076Z,36.57
2019-04-07T01:06:04.216Z,34.57
2019-04-07T01:08:30.955Z,36.50
2019-04-07T01:10:57.183Z,33.03
2019-04-07T01:13:23.213Z,32.73
2019-04-07T01:15:49.394Z,34.77
2019-04-07T01:18:15.474Z,32.47
2019-04-07T01:20:41.894Z,31.80
2019-04-07T01:23:08.150Z,34.00
2019-04-07T01:25:34.575Z,33.63
2019-04-07T01:28:00.878Z,32.77
2019-04-07T01:30:27.230Z,31.37
2019-04-07T01:32:53.436Z,32.87
2019-04-07T01:35:20.162Z,33.90
2019-04-07T01:37:47.211Z,38.07
2019-04-07T01:40:14.409Z,39.63
2019-04-07T01:42:41.016Z,37.43
2019-04-07T01:45:07.567Z,39.30
2019-04-07T01:47:34.278Z,37.20
2019-04-07T01:50:00.513Z,37.33
2019-04-07T01:52:27.285Z,39.70
2019-04-07T01:54:53.676Z,37.20
2019-04-07T01:57:20.156Z,40.33
2019-04-07T01:59:46.341Z,40.63
2019-04-07T02:02:12.566Z,37.43
2019-04-07T02:04:38.970Z,37.27
2019-04-07T02:07:05.758Z,34.03
2019-04-07T02:09:32.461Z,35.30
2019-04-07T02:11:58.614Z,37.13
2019-04-07T02:14:24.542Z,34.70
2019-04-07T02:16:51.164Z,36.47
2019-04-07T02:19:17.469Z,39.27
2019-04-07T02:21:43.826Z,36.40
2019-04-07T02:24:10.247Z,37.23
2019-04-07T02:26:36.848Z,36.03
2019-04-07T02:29:03.848Z,36.73
2019-04-07T02:31:29.962Z,33.93
2019-04-07T02:33:56.247Z,34.00
2019-04-07T02:36:27.441Z,36.33
2019-04-07T02:38:50.384Z,37.17
2019-04-07T02:41:16.406Z,39.13
2019-04-07T02:43:42.648Z,36.57
2019-04-07T02:46:09.638Z,36.60
2019-04-07T02:48:35.943Z,38.27
2019-04-07T02:51:01.935Z,42.27
2019-04-07T02:53:28.839Z,36.90
2019-04-07T02:55:55.151Z,36.57
2019-04-07T02:58:21.345Z,34.87
2019-04-07T03:00:47.454Z,37.97
2019-04-07T03:03:14.090Z,39.30
2019-04-07T03:05:40.536Z,39.50
2019-04-07T03:08:08.638Z,41.73
2019-04-07T03:10:35.196Z,37.20
2019-04-07T03:13:01.239Z,42.00
2019-04-07T03:15:27.499Z,39.97
2019-04-07T03:17:53.883Z,43.93
2019-04-07T03:20:19.939Z,39.70
2019-04-07T03:22:45.948Z,41.77
2019-04-07T03:25:13.258Z,39.53
2019-04-07T03:27:39.334Z,39.00
2019-04-07T03:30:06.158Z,37.77
2019-04-07T03:32:33.759Z,39.53
2019-04-07T03:35:00.297Z,38.10
2019-04-07T03:37:36.358Z,37.13
2019-04-07T03:39:54.162Z,39.93
2019-04-07T03:42:21.248Z,36.40
2019-04-07T03:44:47.433Z,39.77
2019-04-07T03:47:14.384Z,37.53
2019-04-07T03:49:41.395Z,38.00
2019-04-07T03:52:07.478Z,36.10
2019-04-07T03:54:33.681Z,37.57
2019-04-07T03:57:00.427Z,35.80
2019-04-07T03:59:26.894Z,38.13
2019-04-07T04:01:53.996Z,39.17
2019-04-07T04:04:20.980Z,35.67
2019-04-07T04:06:47.322Z,36.63
2019-04-07T04:09:14.018Z,34.90
2019-04-07T04:11:40.645Z,34.03
2019-04-07T04:14:06.625Z,37.60
2019-04-07T04:16:32.702Z,35.53
2019-04-07T04:18:58.830Z,36.40
2019-04-07T04:21:24.767Z,35.83
2019-04-07T04:23:51.646Z,35.97
2019-04-07T04:26:18.042Z,36.80
2019-04-07T04:28:44.320Z,38.57
2019-04-07T04:31:11.062Z,36.03
2019-04-07T04:33:37.764Z,39.00
2019-04-07T04:36:04.377Z,43.30
2019-04-07T04:38:31.720Z,39.47
2019-04-07T04:40:58.197Z,39.13
2019-04-07T04:43:24.363Z,40.23
2019-04-07T04:45:50.618Z,38.53
2019-04-07T04:48:17.373Z,38.70
2019-04-07T04:50:44.032Z,36.43
2019-04-07T04:53:10.722Z,34.03
2019-04-07T04:55:37.251Z,35.77
2019-04-07T04:58:04.169Z,38.63
2019-04-07T05:00:30.300Z,37.43
2019-04-07T05:02:57.012Z,37.17
2019-04-07T05:05:23.307Z,34.40
2019-04-07T05:07:57.675Z,34.17
2019-04-07T05:10:17.220Z,33.47
2019-04-07T05:12:43.438Z,34.13
2019-04-07T05:15:09.795Z,33.03
2019-04-07T05:17:35.801Z,31.50
2019-04-07T05:20:03.715Z,27.67
2019-04-07T05:22:29.902Z,29.47
2019-04-07T05:24:56.737Z,28.87
2019-04-07T05:27:22.923Z,28.50
2019-04-07T05:29:49.528Z,28.53
2019-04-07T05:32:15.786Z,28.90
2019-04-07T05:34:42.340Z,30.00
2019-04-07T05:37:08.754Z,28.60
2019-04-07T05:39:35.179Z,26.40
2019-04-07T05:42:01.319Z,27.00
2019-04-07T05:44:27.835Z,26.60
2019-04-07T05:46:53.954Z,25.87
2019-04-07T05:49:22.580Z,25.27
2019-04-07T05:51:47.995Z,25.70
2019-04-07T05:54:16.385Z,24.73
2019-04-07T05:56:42.454Z,25.17
2019-04-07T05:59:11.666Z,23.53
2019-04-07T06:01:36.721Z,23.80
2019-04-07T06:04:03.027Z,23.20
2019-04-07T06:06:29.001Z,22.73
2019-04-07T06:08:55.160Z,21.10
2019-04-07T06:11:21.638Z,20.63
2019-04-07T06:13:48.683Z,22.03
2019-04-07T06:16:15.199Z,21.23
2019-04-07T06:18:41.265Z,20.63
2019-04-07T06:21:07.765Z,20.23
2019-04-07T06:23:33.824Z,20.93
2019-04-07T06:26:00.294Z,19.60
2019-04-07T06:28:26.784Z,20.40
2019-04-07T06:30:53.046Z,20.47
2019-04-07T06:33:19.892Z,20.23
2019-04-07T06:35:47.319Z,19.77
2019-04-07T06:38:14.430Z,20.30
2019-04-07T06:40:40.602Z,21.07
2019-04-07T06:43:07.453Z,21.47
2019-04-07T06:45:33.860Z,21.03
2019-04-07T06:48:01.585Z,21.57
2019-04-07T06:50:28.097Z,22.67
2019-04-07T06:52:54.266Z,23.23
2019-04-07T06:55:20.302Z,22.73
2019-04-07T06:57:46.634Z,23.87
2019-04-07T07:00:13.998Z,22.93
2019-04-07T07:02:40.698Z,22.93
2019-04-07T07:05:07.059Z,23.17
2019-04-07T07:07:33.543Z,21.37
2019-04-07T07:10:00.671Z,21.73
2019-04-07T07:12:35.003Z,22.20
2019-04-07T07:14:55.143Z,22.37
2019-04-07T07:17:21.527Z,21.80
2019-04-07T07:19:47.903Z,22.53
2019-04-07T07:22:16.010Z,20.47
2019-04-07T07:24:41.928Z,19.70
2019-04-07T07:27:10.319Z,19.73
2019-04-07T07:29:36.266Z,19.33
2019-04-07T07:32:03.878Z,19.83
2019-04-07T07:34:31.643Z,18.40
2019-04-07T07:36:58.988Z,18.93
2019-04-07T07:39:26.256Z,18.03
2019-04-07T07:41:53.034Z,15.77
2019-04-07T07:44:19.985Z,15.80
2019-04-07T07:46:49.101Z,16.50
2019-04-07T07:49:14.794Z,17.23
2019-04-07T07:51:45.083Z,16.93
2019-04-07T07:54:08.844Z,17.20
2019-04-07T07:56:35.774Z,14.40
2019-04-07T07:59:02.592Z,16.00
2019-04-07T08:01:28.829Z,12.00
2019-04-07T08:03:55.697Z,12.97
2019-04-07T08:06:21.994Z,11.13
2019-04-07T08:08:48.561Z,11.93
2019-04-07T08:11:16.476Z,11.53
2019-04-07T08:13:45.566Z,14.60
2019-04-07T08:16:10.946Z,13.57
2019-04-07T08:18:40.393Z,11.90
2019-04-07T08:21:05.568Z,12.57
2019-04-07T08:23:31.734Z,12.43
2019-04-07T08:25:58.187Z,11.40
2019-04-07T08:28:25.444Z,12.40
2019-04-07T08:30:51.751Z,12.43
2019-04-07T08:33:17.974Z,12.17
2019-04-07T08:35:44.229Z,11.90
2019-04-07T08:38:10.988Z,11.73
2019-04-07T08:40:38.393Z,11.57
2019-04-07T08:43:04.975Z,11.00
2019-04-07T08:45:32.681Z,11.73
2019-04-07T08:47:59.477Z,13.83
2019-04-07T08:50:27.883Z,13.23
2019-04-07T08:52:53.851Z,11.60
2019-04-07T08:55:21.630Z,11.60
2019-04-07T08:57:48.231Z,11.83
2019-04-07T09:00:17.380Z,11.97
2019-04-07T09:02:43.802Z,10.80
2019-04-07T09:05:11.670Z,11.40
2019-04-07T09:07:38.011Z,10.73
2019-04-07T09:10:06.139Z,11.30
2019-04-07T09:12:32.278Z,10.30
2019-04-07T09:14:58.412Z,11.50
2019-04-07T09:17:32.102Z,12.80
2019-04-07T09:19:54.471Z,9.60
2019-04-07T09:22:22.871Z,12.53
2019-04-07T09:24:48.319Z,12.73
2019-04-07T09:27:18.562Z,11.03
2019-04-07T09:29:43.106Z,13.40
2019-04-07T09:32:09.880Z,12.90
2019-04-07T09:34:36.312Z,11.50
2019-04-07T09:37:03.239Z,10.77
2019-04-07T09:39:34.023Z,10.17
2019-04-07T09:41:57.425Z,10.33
2019-04-07T09:44:23.552Z,9.83
2019-04-07T09:46:51.093Z,9.40
2019-04-07T09:49:21.244Z,10.47
2019-04-07T09:51:46.195Z,10.43
2019-04-07T09:54:12.338Z,11.63
2019-04-07T09:56:38.479Z,12.40
2019-04-07T09:59:04.505Z,12.10
2019-04-07T10:01:30.830Z,12.03
2019-04-07T10:03:56.956Z,12.23
2019-04-07T10:06:23.079Z,11.77
2019-04-07T10:08:49.790Z,12.33
2019-04-07T10:11:16.104Z,12.37
2019-04-07T10:13:42.305Z,13.40
2019-04-07T10:16:09.989Z,13.77
2019-04-07T10:18:36.892Z,14.23
2019-04-07T10:21:03.314Z,14.37
2019-04-07T10:23:30.048Z,15.60
2019-04-07T10:25:57.108Z,15.87
2019-04-07T10:28:24.458Z,15.87
2019-04-07T10:30:51.770Z,17.03
2019-04-07T10:33:19.097Z,17.80
2019-04-07T10:35:45.633Z,18.53
2019-04-07T10:38:12.558Z,18.40
2019-04-07T10:40:38.908Z,18.23
2019-04-07T10:43:05.264Z,18.63
2019-04-07T10:45:31.284Z,17.23
2019-04-07T10:47:57.855Z,17.80
2019-04-07T10:50:25.693Z,16.70
2019-04-07T10:52:51.849Z,16.87
2019-04-07T10:55:18.078Z,16.43
2019-04-07T10:57:44.100Z,16.60
2019-04-07T11:00:11.021Z,16.60
2019-04-07T11:02:37.048Z,17.47
2019-04-07T11:05:05.196Z,15.73
2019-04-07T11:07:31.690Z,15.83
2019-04-07T11:09:57.738Z,15.23
2019-04-07T11:12:23.716Z,17.13
2019-04-07T11:14:50.133Z,17.53
2019-04-07T11:17:16.497Z,16.90
2019-04-07T11:19:43.481Z,18.07
2019-04-07T11:22:10.529Z,18.20
2019-04-07T11:24:37.113Z,17.97
2019-04-07T11:27:03.539Z,17.90
2019-04-07T11:29:29.599Z,19.63
2019-04-07T11:31:55.701Z,18.83
2019-04-07T11:34:22.584Z,20.73
2019-04-07T11:36:49.583Z,22.37
2019-04-07T11:39:16.114Z,19.93
2019-04-07T11:41:43.579Z,20.47
2019-04-07T11:44:09.691Z,17.70
2019-04-07T11:46:35.717Z,17.40
2019-04-07T11:49:02.464Z,18.70
2019-04-07T11:51:28.679Z,17.73
2019-04-07T11:53:54.806Z,15.17
2019-04-07T11:56:21.734Z,14.63
2019-04-07T11:58:48.716Z,14.60
2019-04-07T12:01:15.641Z,15.23
2019-04-07T12:03:42.899Z,14.37
2019-04-07T12:06:11.629Z,12.63
2019-04-07T12:08:37.726Z,12.73
2019-04-07T12:11:06.243Z,14.83
2019-04-07T12:13:33.023Z,13.87
2019-04-07T12:15:59.414Z,14.27
2019-04-07T12:18:25.478Z,12.63
2019-04-07T12:20:51.874Z,14.80
2019-04-07T12:23:22.895Z,15.23
2019-04-07T12:25:46.106Z,15.27
2019-04-07T12:28:16.086Z,14.33
2019-04-07T12:30:40.201Z,14.53
2019-04-07T12:33:07.930Z,14.97
2019-04-07T12:35:34.292Z,12.60
2019-04-07T12:38:00.375Z,13.80
2019-04-07T12:40:26.439Z,14.20
2019-04-07T12:42:53.419Z,14.70
2019-04-07T12:45:19.407Z,14.10
2019-04-07T12:47:45.878Z,14.67
2019-04-07T12:50:15.782Z,12.97
2019-04-07T12:52:40.970Z,13.60
2019-04-07T12:55:08.061Z,13.23
2019-04-07T12:57:37.731Z,13.03
2019-04-07T13:02:56.692Z,12.70
2019-04-07T13:05:22.953Z,12.77
2019-04-07T13:07:51.368Z,11.87
2019-04-07T13:10:17.266Z,13.20
2019-04-07T13:12:43.344Z,13.07
2019-04-07T13:15:12.647Z,13.63
2019-04-07T13:17:38.101Z,13.60
2019-04-07T13:20:06.222Z,12.63
2019-04-07T13:22:34.087Z,13.87
2019-04-07T13:25:01.399Z,13.50
2019-04-07T13:27:27.872Z,13.17
2019-04-07T13:29:54.275Z,12.90
2019-04-07T13:32:20.700Z,13.27
2019-04-07T13:34:46.966Z,13.27
2019-04-07T13:37:13.505Z,12.83
2019-04-07T13:39:41.898Z,13.10
2019-04-07T13:42:08.811Z,13.20
2019-04-07T13:44:38.803Z,11.80
2019-04-07T13:47:06.219Z,12.60
2019-04-07T13:49:32.053Z,12.93
2019-04-07T13:51:58.858Z,13.00
2019-04-07T13:54:25.375Z,13.63
2019-04-07T13:56:52.185Z,13.77
2019-04-07T13:59:19.372Z,13.60
2019-04-07T14:01:46.192Z,14.50
2019-04-07T14:04:13.368Z,15.97
2019-04-07T14:06:44.509Z,15.33
2019-04-07T14:09:07.778Z,15.70
2019-04-07T14:11:34.975Z,15.30
2019-04-07T14:14:01.390Z,14.67
2019-04-07T14:16:27.684Z,13.00
2019-04-07T14:18:54.600Z,13.50
2019-04-07T14:21:21.478Z,12.87
2019-04-07T14:23:47.490Z,15.47
2019-04-07T14:26:13.647Z,15.60
2019-04-07T14:28:40.136Z,14.70
2019-04-07T14:31:06.549Z,14.60
2019-04-07T14:33:32.711Z,13.30
2019-04-07T14:35:59.676Z,12.20
2019-04-07T14:38:26.573Z,13.93
2019-04-07T14:40:52.848Z,13.23
2019-04-07T14:43:19.069Z,13.87
2019-04-07T14:45:47.558Z,12.97
2019-04-07T14:48:13.017Z,13.13
2019-04-07T14:50:39.667Z,14.57
2019-04-07T14:53:06.598Z,14.70
2019-04-07T14:55:32.914Z,14.90
2019-04-07T14:57:59.097Z,15.67
2019-04-07T15:00:27.012Z,15.10
2019-04-07T15:02:53.174Z,14.40
2019-04-07T15:05:23.244Z,14.33
2019-04-07T15:07:48.325Z,14.03
2019-04-07T15:10:16.853Z,13.80
2019-04-07T15:12:44.150Z,15.27
2019-04-07T15:15:11.830Z,14.87
2019-04-07T15:17:38.014Z,15.27
2019-04-07T15:20:07.461Z,15.77
2019-04-07T15:22:34.459Z,14.23
2019-04-07T15:25:01.409Z,15.13
2019-04-07T15:27:28.328Z,15.23
2019-04-07T15:29:54.481Z,14.23
2019-04-07T15:32:24.331Z,15.90
2019-04-07T15:34:49.023Z,14.53
2019-04-07T15:37:15.467Z,15.43
2019-04-07T15:39:44.468Z,15.87
2019-04-07T15:42:11.551Z,16.13
2019-04-07T15:44:39.620Z,16.47
2019-04-07T15:47:07.268Z,17.30
2019-04-07T15:49:34.305Z,15.97
2019-04-07T15:52:01.493Z,17.17
2019-04-07T15:54:28.605Z,17.37
2019-04-07T15:56:55.309Z,17.10
2019-04-07T15:59:22.842Z,16.60
2019-04-07T16:01:49.331Z,15.93
2019-04-07T16:04:15.972Z,16.77
2019-04-07T16:06:44.228Z,16.60
2019-04-07T16:09:17.718Z,16.93
2019-04-07T16:11:39.197Z,15.97
2019-04-07T16:14:12.506Z,15.73
2019-04-07T16:16:33.486Z,15.87
2019-04-07T16:18:59.471Z,15.63
2019-04-07T16:21:28.444Z,15.20
2019-04-07T16:23:54.383Z,15.23
2019-04-07T16:26:21.769Z,15.57
2019-04-07T16:28:48.485Z,15.77
2019-04-07T16:31:14.769Z,15.77
2019-04-07T16:33:41.043Z,15.50
2019-04-07T16:36:07.196Z,15.97
2019-04-07T16:38:33.156Z,15.83
2019-04-07T16:40:59.103Z,16.00
2019-04-07T16:43:26.164Z,15.30
2019-04-07T16:45:53.472Z,16.17
2019-04-07T16:48:19.821Z,16.10
2019-04-07T16:50:51.004Z,15.90
2019-04-07T16:53:16.339Z,14.80
2019-04-07T16:55:47.416Z,14.43
2019-04-07T16:58:11.684Z,14.53
2019-04-07T17:00:38.379Z,14.77
2019-04-07T17:03:07.646Z,14.73
2019-04-07T17:05:33.756Z,15.00
2019-04-07T17:08:01.728Z,13.87
2019-04-07T17:10:32.791Z,14.80
2019-04-07T17:13:00.444Z,16.87
2019-04-07T17:15:27.380Z,15.57
2019-04-07T17:17:54.656Z,15.70
2019-04-07T17:20:21.101Z,16.60
2019-04-07T17:22:48.457Z,15.63
2019-04-07T17:25:15.607Z,16.43
2019-04-07T17:27:42.559Z,15.43
2019-04-07T17:30:17.177Z,17.33
2019-04-07T17:32:43.493Z,19.13
2019-04-07T17:35:14.297Z,14.77
2019-04-07T17:37:40.581Z,17.77
2019-04-07T17:40:11.283Z,16.27
2019-04-07T17:42:35.332Z,16.00
2019-04-07T17:45:02.015Z,15.20
2019-04-07T17:47:31.109Z,15.13
2019-04-07T17:49:59.163Z,16.97
2019-04-07T17:52:24.740Z,15.00
2019-04-07T17:54:54.024Z,14.53
2019-04-07T17:57:19.329Z,15.47
2019-04-07T17:59:47.153Z,14.80
2019-04-07T18:02:14.222Z,15.40
2019-04-07T18:04:42.941Z,15.50
2019-04-07T18:07:08.928Z,15.50
2019-04-07T18:09:35.140Z,14.80
2019-04-07T18:12:06.811Z,15.60
2019-04-07T18:14:30.170Z,15.73
2019-04-07T18:16:57.002Z,14.90
2019-04-07T18:19:27.101Z,15.47
2019-04-07T18:21:53.402Z,15.70
2019-04-07T18:24:19.164Z,15.50
2019-04-07T18:26:45.497Z,15.67
2019-04-07T18:29:13.567Z,15.97
2019-04-07T18:31:40.291Z,15.43
2019-04-07T18:34:06.735Z,16.43
2019-04-07T18:36:34.720Z,15.40
2019-04-07T18:39:00.652Z,15.83
2019-04-07T18:41:30.788Z,17.07
2019-04-07T18:44:03.445Z,17.40
2019-04-07T18:46:23.697Z,17.20
2019-04-07T18:48:49.948Z,18.60
2019-04-07T18:51:16.265Z,18.43
2019-04-07T18:53:42.827Z,18.33
2019-04-07T18:56:10.429Z,18.37
2019-04-07T18:58:36.866Z,18.83
2019-04-07T19:01:08.170Z,18.70
2019-04-07T19:03:31.090Z,18.87
2019-04-07T19:05:57.542Z,18.23
2019-04-07T19:08:25.037Z,18.80
2019-04-07T19:10:52.925Z,18.53
2019-04-07T19:13:25.404Z,18.93
2019-04-07T19:15:47.865Z,19.53
2019-04-07T19:18:14.907Z,20.40
2019-04-07T19:20:42.017Z,21.03
2019-04-07T19:23:09.844Z,19.93
2019-04-07T19:25:36.052Z,20.13
2019-04-07T19:28:04.655Z,19.00
2019-04-07T19:30:31.066Z,20.03
2019-04-07T19:32:57.940Z,20.03
2019-04-07T19:35:24.028Z,19.27
2019-04-07T19:37:50.661Z,19.37
2019-04-07T19:40:16.999Z,20.50
2019-04-07T19:42:47.078Z,20.47
2019-04-07T19:45:13.301Z,19.93
2019-04-07T19:47:39.658Z,20.17
2019-04-07T19:50:09.759Z,20.30
2019-04-07T19:52:37.173Z,19.07
2019-04-07T19:55:03.996Z,19.30
2019-04-07T19:57:30.114Z,19.87
2019-04-07T19:59:56.982Z,18.57
2019-04-07T20:02:24.069Z,19.30
2019-04-07T20:04:53.455Z,20.17
2019-04-07T20:07:18.298Z,18.70
2019-04-07T20:09:48.359Z,19.30
2019-04-07T20:12:14.236Z,18.33
2019-04-07T20:14:49.344Z,20.60
2019-04-07T20:17:08.440Z,19.93
2019-04-07T20:19:38.555Z,19.20
2019-04-07T20:22:04.722Z,19.30
2019-04-07T20:24:34.562Z,20.07
2019-04-07T20:26:59.134Z,19.83
2019-04-07T20:29:25.809Z,22.07
2019-04-07T20:31:53.369Z,19.67
2019-04-07T20:34:19.819Z,20.83
2019-04-07T20:36:45.936Z,20.87
2019-04-07T20:39:11.969Z,20.23
2019-04-07T20:41:38.055Z,20.73
2019-04-07T20:44:04.108Z,20.47
2019-04-07T20:46:30.124Z,20.40
2019-04-07T20:48:56.189Z,21.57
2019-04-07T20:51:22.224Z,18.73
2019-04-07T20:53:49.281Z,19.60
2019-04-07T20:56:15.445Z,20.03
2019-04-07T20:58:47.263Z,21.63
2019-04-07T21:01:14.297Z,21.40
2019-04-07T21:03:38.462Z,20.13
2019-04-07T21:06:04.558Z,21.33
2019-04-07T21:08:32.278Z,21.13
2019-04-07T21:10:58.960Z,21.87
2019-04-07T21:13:25.281Z,21.37
2019-04-07T21:15:51.305Z,22.40
2019-04-07T21:18:17.912Z,22.80
2019-04-07T21:20:44.273Z,22.23
2019-04-07T21:23:14.035Z,22.47
2019-04-07T21:25:39.222Z,23.00
2019-04-07T21:28:07.320Z,21.30
2019-04-07T21:30:34.715Z,22.00
2019-04-07T21:33:00.740Z,23.87
2019-04-07T21:35:29.182Z,22.30
2019-04-07T21:37:55.102Z,21.37
2019-04-07T21:40:21.159Z,22.50
2019-04-07T21:42:48.275Z,24.03
2019-04-07T21:45:15.354Z,22.87
2019-04-07T21:47:41.377Z,23.73
2019-04-07T21:50:10.004Z,25.27
2019-04-07T21:52:36.230Z,22.47
2019-04-07T21:55:06.024Z,23.50
2019-04-07T21:57:32.536Z,23.43
2019-04-07T21:59:59.524Z,23.00
2019-04-07T22:02:25.822Z,20.67
2019-04-07T22:04:54.625Z,23.20
2019-04-07T22:07:20.207Z,21.47
2019-04-07T22:09:49.447Z,23.37
2019-04-07T22:12:14.684Z,22.87
2019-04-07T22:14:43.045Z,22.93
2019-04-07T22:17:09.464Z,23.50
2019-04-07T22:19:36.057Z,20.80
2019-04-07T22:22:02.490Z,22.93
2019-04-07T22:24:31.331Z,21.77
2019-04-07T22:26:57.192Z,23.37
2019-04-07T22:29:23.245Z,22.63
2019-04-07T22:31:49.332Z,24.97
2019-04-07T22:34:16.418Z,23.93
2019-04-07T22:36:45.485Z,24.80
2019-04-07T22:39:10.586Z,25.03
2019-04-07T22:41:37.014Z,26.13
2019-04-07T22:44:05.087Z,24.03
2019-04-07T22:46:31.219Z,22.67
2019-04-07T22:48:58.736Z,24.77
2019-04-07T22:51:25.200Z,26.03
2019-04-07T22:53:54.365Z,24.97
2019-04-07T22:56:20.252Z,26.47
2019-04-07T22:58:46.652Z,24.43
2019-04-07T23:01:12.984Z,25.00
2019-04-07T23:03:39.152Z,26.27
2019-04-07T23:06:05.246Z,27.00
2019-04-07T23:08:31.265Z,25.60
2019-04-07T23:10:58.037Z,25.93
2019-04-07T23:13:24.125Z,25.17
2019-04-07T23:15:50.408Z,27.33
2019-04-07T23:18:16.476Z,26.53
2019-04-07T23:20:42.493Z,26.57
2019-04-07T23:23:08.869Z,26.13
2019-04-07T23:25:34.979Z,26.53
2019-04-07T23:28:02.689Z,27.67
2019-04-07T23:30:28.779Z,28.30
2019-04-07T23:32:55.620Z,27.57
2019-04-07T23:35:22.194Z,27.27
2019-04-07T23:37:48.860Z,29.93
2019-04-07T23:40:16.223Z,27.17
2019-04-07T23:42:42.615Z,25.10
2019-04-07T23:45:10.281Z,26.40
2019-04-07T23:47:36.670Z,25.57
2019-04-07T23:50:05.624Z,26.10
2019-04-07T23:52:31.749Z,26.70
2019-04-07T23:54:58.711Z,26.00
2019-04-07T23:57:24.919Z,25.50
2019-04-07T23:59:50.986Z,25.93
